createdAt,value
2023-09-17T00:00:28.065Z,57.25
2023-09-17T00:03:17.823Z,57.19
2023-09-17T00:05:46.156Z,57.14
2023-09-17T00:08:14.219Z,56.95
2023-09-17T00:10:44.254Z,57.04
2023-09-17T00:13:12.849Z,57.26
2023-09-17T00:15:40.461Z,56.99
2023-09-17T00:18:08.601Z,57.31
2023-09-17T00:20:36.266Z,57.05
2023-09-17T00:23:04.333Z,57.26
2023-09-17T00:25:32.207Z,57.38
2023-09-17T00:27:59.900Z,57.38
2023-09-17T00:30:28.849Z,57.49
2023-09-17T00:32:57.868Z,57.27
2023-09-17T00:35:25.635Z,57.39
2023-09-17T00:37:54.438Z,57.49
2023-09-17T00:40:28.789Z,57.47
2023-09-17T00:42:56.936Z,57.59
2023-09-17T00:45:24.735Z,57.62
2023-09-17T00:47:55.136Z,57.46
2023-09-17T00:50:26.109Z,57.71
2023-09-17T00:52:56.205Z,57.99
2023-09-17T00:55:23.993Z,58.00
2023-09-17T00:57:52.146Z,57.94
2023-09-17T01:00:22.289Z,58.01
2023-09-17T01:02:50.490Z,58.23
2023-09-17T01:05:19.424Z,58.28
2023-09-17T01:07:47.256Z,58.41
2023-09-17T01:10:15.382Z,58.15
2023-09-17T01:12:43.975Z,58.30
2023-09-17T01:15:11.904Z,58.26
2023-09-17T01:17:39.792Z,58.20
2023-09-17T01:20:25.172Z,58.22
2023-09-17T01:22:56.540Z,58.65
2023-09-17T01:25:35.887Z,58.43
2023-09-17T01:28:05.862Z,58.48
2023-09-17T01:30:33.657Z,58.54
2023-09-17T01:33:01.954Z,58.58
2023-09-17T01:35:30.946Z,58.34
2023-09-17T01:38:00.478Z,58.48
2023-09-17T01:40:29.236Z,58.58
2023-09-17T01:42:58.072Z,58.58
2023-09-17T01:45:27.424Z,58.50
2023-09-17T01:47:57.011Z,58.56
2023-09-17T01:50:26.102Z,58.73
2023-09-17T01:52:57.448Z,58.92
2023-09-17T01:55:26.945Z,58.78
2023-09-17T01:57:55.983Z,58.71
2023-09-17T02:00:23.634Z,59.06
2023-09-17T02:02:53.739Z,58.82
2023-09-17T02:05:26.027Z,59.08
2023-09-17T02:07:58.294Z,59.25
2023-09-17T02:10:26.322Z,59.11
2023-09-17T02:12:55.743Z,59.11
2023-09-17T02:15:23.355Z,59.32
2023-09-17T02:17:53.342Z,59.21
2023-09-17T02:20:21.101Z,59.38
2023-09-17T02:22:48.721Z,59.37
2023-09-17T02:25:19.477Z,59.33
2023-09-17T02:27:47.130Z,59.26
2023-09-17T02:30:14.815Z,59.17
2023-09-17T02:32:44.692Z,59.32
2023-09-17T02:35:12.464Z,59.45
2023-09-17T02:37:40.160Z,59.47
2023-09-17T02:40:09.805Z,59.37
2023-09-17T02:42:37.618Z,59.50
2023-09-17T02:45:09.575Z,59.57
2023-09-17T02:47:37.464Z,59.48
2023-09-17T02:50:06.668Z,59.69
2023-09-17T02:52:34.754Z,59.66
2023-09-17T02:55:05.247Z,59.79
2023-09-17T02:57:32.962Z,59.74
2023-09-17T03:00:01.380Z,59.76
2023-09-17T03:02:31.288Z,60.04
2023-09-17T03:05:00.406Z,59.82
2023-09-17T03:07:28.703Z,60.18
2023-09-17T03:10:00.301Z,59.90
2023-09-17T03:12:28.877Z,59.93
2023-09-17T03:14:56.894Z,60.09
2023-09-17T03:17:24.946Z,60.14
2023-09-17T03:19:53.320Z,60.22
2023-09-17T03:22:23.901Z,60.01
2023-09-17T03:25:03.963Z,60.18
2023-09-17T03:27:34.484Z,60.26
2023-09-17T03:30:04.268Z,60.39
2023-09-17T03:32:32.056Z,60.28
2023-09-17T03:34:59.865Z,60.23
2023-09-17T03:37:27.494Z,60.34
2023-09-17T03:40:08.639Z,60.39
2023-09-17T03:42:37.147Z,60.51
2023-09-17T03:45:06.268Z,60.20
2023-09-17T03:47:34.654Z,60.29
2023-09-17T03:50:05.397Z,60.60
2023-09-17T03:52:34.467Z,60.36
2023-09-17T03:55:02.339Z,60.70
2023-09-17T03:57:30.116Z,60.36
2023-09-17T03:59:57.786Z,60.74
2023-09-17T04:02:26.285Z,60.71
2023-09-17T04:04:54.235Z,60.71
2023-09-17T04:07:22.353Z,60.48
2023-09-17T04:09:50.028Z,60.43
2023-09-17T04:12:17.801Z,60.81
2023-09-17T04:14:45.928Z,60.62
2023-09-17T04:17:15.075Z,60.58
2023-09-17T04:19:44.232Z,60.76
2023-09-17T04:22:12.188Z,60.91
2023-09-17T04:24:39.795Z,60.65
2023-09-17T04:27:07.676Z,60.85
2023-09-17T04:29:36.421Z,60.67
2023-09-17T04:32:04.767Z,60.79
2023-09-17T04:34:32.698Z,60.52
2023-09-17T04:37:01.016Z,60.74
2023-09-17T04:39:31.540Z,60.71
2023-09-17T04:42:00.266Z,60.76
2023-09-17T04:44:29.043Z,61.06
2023-09-17T04:46:56.678Z,60.86
2023-09-17T04:49:26.882Z,60.97
2023-09-17T04:51:54.506Z,60.89
2023-09-17T04:54:24.625Z,61.11
2023-09-17T04:56:55.196Z,61.15
2023-09-17T04:59:23.046Z,61.27
2023-09-17T05:01:50.799Z,61.10
2023-09-17T05:04:19.239Z,61.15
2023-09-17T05:06:46.874Z,61.26
2023-09-17T05:09:14.619Z,61.19
2023-09-17T05:11:45.602Z,61.29
2023-09-17T05:14:13.240Z,61.46
2023-09-17T05:16:41.461Z,61.55
2023-09-17T05:19:09.373Z,61.47
2023-09-17T05:21:37.013Z,61.55
2023-09-17T05:24:05.272Z,61.69
2023-09-17T05:26:32.976Z,61.65
2023-09-17T05:29:01.417Z,61.73
2023-09-17T05:31:30.900Z,61.58
2023-09-17T05:33:58.646Z,61.42
2023-09-17T05:36:27.282Z,61.57
2023-09-17T05:38:55.491Z,61.81
2023-09-17T05:41:23.442Z,61.81
2023-09-17T05:43:51.410Z,61.73
2023-09-17T05:46:20.311Z,61.79
2023-09-17T05:48:48.249Z,61.91
2023-09-17T05:51:18.949Z,61.82
2023-09-17T05:53:47.786Z,61.71
2023-09-17T05:56:18.376Z,61.99
2023-09-17T05:58:46.266Z,61.72
2023-09-17T06:01:16.254Z,62.07
2023-09-17T06:03:45.050Z,62.03
2023-09-17T06:06:12.795Z,62.36
2023-09-17T06:08:40.648Z,62.28
2023-09-17T06:11:08.654Z,62.26
2023-09-17T06:13:36.547Z,62.23
2023-09-17T06:16:04.628Z,62.12
2023-09-17T06:18:37.618Z,62.35
2023-09-17T06:21:06.778Z,62.51
2023-09-17T06:23:34.579Z,62.26
2023-09-17T06:26:02.305Z,62.61
2023-09-17T06:28:30.679Z,62.81
2023-09-17T06:30:59.331Z,63.32
2023-09-17T06:33:27.031Z,63.73
2023-09-17T06:35:54.697Z,63.31
2023-09-17T06:38:22.534Z,63.25
2023-09-17T06:40:51.813Z,62.83
2023-09-17T06:43:19.787Z,62.52
2023-09-17T06:45:50.450Z,62.20
2023-09-17T06:48:18.068Z,61.73
2023-09-17T06:50:45.773Z,61.31
2023-09-17T06:53:13.525Z,60.79
2023-09-17T06:55:41.814Z,60.54
2023-09-17T06:58:09.544Z,60.04
2023-09-17T07:00:37.610Z,59.92
2023-09-17T07:03:05.704Z,59.51
2023-09-17T07:05:33.584Z,59.80
2023-09-17T07:08:01.792Z,59.92
2023-09-17T07:10:29.842Z,60.09
2023-09-17T07:12:58.104Z,60.24
2023-09-17T07:15:26.260Z,60.22
2023-09-17T07:17:56.335Z,60.10
2023-09-17T07:20:24.450Z,60.38
2023-09-17T07:22:52.664Z,60.51
2023-09-17T07:25:20.779Z,60.51
2023-09-17T07:40:05.702Z,60.33
2023-09-17T07:42:37.705Z,60.19
2023-09-17T07:45:11.659Z,59.99
2023-09-17T07:47:43.658Z,59.95
2023-09-17T07:50:18.039Z,59.86
2023-09-17T07:52:50.058Z,60.00
2023-09-17T07:55:22.278Z,60.34
2023-09-17T07:57:54.608Z,60.61
2023-09-17T08:00:27.125Z,60.82
2023-09-17T08:03:02.765Z,60.78
2023-09-17T08:05:36.356Z,60.54
2023-09-17T08:08:09.252Z,60.55
2023-09-17T08:10:43.655Z,60.33
2023-09-17T08:13:18.035Z,60.23
2023-09-17T08:15:52.064Z,60.19
2023-09-17T08:18:24.029Z,59.92
2023-09-17T08:20:56.250Z,59.44
2023-09-17T08:23:28.193Z,59.05
2023-09-17T08:26:00.583Z,58.15
2023-09-17T08:28:32.958Z,57.14
2023-09-17T08:31:06.532Z,56.67
2023-09-17T08:33:41.018Z,56.30
2023-09-17T08:36:22.947Z,56.56
2023-09-17T08:38:55.425Z,56.97
2023-09-17T08:41:28.224Z,56.97
2023-09-17T08:44:00.945Z,56.86
2023-09-17T08:46:38.863Z,56.28
2023-09-17T08:49:12.717Z,56.14
2023-09-17T08:51:48.374Z,56.18
2023-09-17T08:54:27.473Z,56.40
2023-09-17T08:57:02.639Z,56.58
2023-09-17T08:59:43.899Z,56.34
2023-09-17T09:02:22.481Z,56.39
2023-09-17T09:04:55.187Z,56.11
2023-09-17T09:07:30.606Z,56.15
2023-09-17T09:10:03.587Z,55.78
2023-09-17T09:12:37.972Z,55.61
2023-09-17T09:15:12.870Z,55.54
2023-09-17T09:17:45.108Z,55.32
2023-09-17T09:20:18.248Z,55.32
2023-09-17T09:22:51.064Z,55.05
2023-09-17T09:25:23.659Z,54.89
2023-09-17T09:28:04.609Z,54.83
2023-09-17T09:30:37.982Z,54.75
2023-09-17T09:33:11.308Z,54.66
2023-09-17T09:35:47.268Z,54.31
2023-09-17T09:38:21.139Z,54.27
2023-09-17T09:40:53.246Z,54.30
2023-09-17T09:43:35.679Z,54.32
2023-09-17T09:46:08.881Z,54.16
2023-09-17T09:48:43.245Z,53.75
2023-09-17T09:51:18.291Z,53.60
2023-09-17T09:53:51.149Z,53.65
2023-09-17T09:56:29.070Z,53.85
2023-09-17T09:59:01.948Z,53.63
2023-09-17T10:01:40.185Z,53.28
2023-09-17T10:04:14.248Z,53.21
2023-09-17T10:06:49.335Z,53.05
2023-09-17T10:09:22.535Z,53.02
2023-09-17T10:11:55.802Z,53.16
2023-09-17T10:14:31.447Z,52.88
2023-09-17T10:17:03.696Z,52.74
2023-09-17T10:19:36.690Z,52.56
2023-09-17T10:22:13.964Z,52.78
2023-09-17T10:24:51.317Z,52.48
2023-09-17T10:27:24.307Z,52.52
2023-09-17T10:29:58.319Z,52.24
2023-09-17T10:32:33.054Z,52.18
2023-09-17T10:35:08.448Z,52.00
2023-09-17T10:37:41.628Z,52.16
2023-09-17T10:40:15.297Z,52.13
2023-09-17T10:42:52.550Z,52.08
2023-09-17T10:45:26.310Z,51.98
2023-09-17T10:48:01.717Z,51.74
2023-09-17T10:50:40.432Z,51.56
2023-09-17T10:53:12.537Z,51.49
2023-09-17T10:55:50.418Z,51.48
2023-09-17T10:58:27.339Z,51.47
2023-09-17T11:01:04.377Z,51.29
2023-09-17T11:03:40.302Z,51.37
2023-09-17T11:06:18.246Z,51.21
2023-09-17T11:08:51.015Z,51.23
2023-09-17T11:11:26.815Z,51.28
2023-09-17T11:14:00.804Z,51.19
2023-09-17T11:16:37.299Z,51.32
2023-09-17T11:19:17.344Z,51.34
2023-09-17T11:21:53.786Z,51.17
2023-09-17T11:24:25.996Z,51.15
2023-09-17T11:27:02.756Z,51.23
2023-09-17T11:29:43.415Z,50.98
2023-09-17T11:32:22.539Z,50.91
2023-09-17T11:34:55.792Z,50.90
2023-09-17T11:37:28.530Z,50.75
2023-09-17T11:40:00.700Z,50.70
2023-09-17T11:42:33.585Z,50.61
2023-09-17T11:45:07.453Z,50.56
2023-09-17T11:47:40.409Z,50.56
2023-09-17T11:50:12.987Z,50.50
2023-09-17T11:53:01.706Z,50.49
2023-09-17T11:55:36.055Z,50.53
2023-09-17T11:58:21.348Z,50.59
2023-09-17T12:00:53.428Z,50.46
2023-09-17T12:03:28.533Z,50.48
2023-09-17T12:06:01.483Z,50.10
2023-09-17T12:08:34.537Z,50.04
2023-09-17T12:11:15.063Z,49.80
2023-09-17T12:13:48.151Z,49.99
2023-09-17T12:16:20.668Z,49.83
2023-09-17T12:19:03.857Z,49.97
2023-09-17T12:21:47.308Z,50.07
2023-09-17T12:24:30.224Z,50.14
2023-09-17T12:27:20.705Z,50.06
2023-09-17T12:29:54.280Z,50.04
2023-09-17T12:32:29.207Z,50.10
2023-09-17T12:35:01.593Z,50.22
2023-09-17T12:37:33.656Z,50.17
2023-09-17T12:40:08.719Z,50.27
2023-09-17T12:42:41.499Z,50.22
2023-09-17T12:45:17.525Z,50.23
2023-09-17T12:47:49.765Z,50.07
2023-09-17T12:50:23.376Z,50.10
2023-09-17T12:53:00.269Z,50.19
2023-09-17T12:55:32.935Z,49.97
2023-09-17T12:58:08.978Z,49.94
2023-09-17T13:00:41.543Z,49.95
2023-09-17T13:03:17.095Z,50.01
2023-09-17T13:05:57.171Z,50.00
2023-09-17T13:08:30.433Z,49.99
2023-09-17T13:11:03.561Z,49.90
2023-09-17T13:13:35.888Z,50.01
2023-09-17T13:16:10.257Z,49.96
2023-09-17T13:18:47.052Z,49.92
2023-09-17T13:21:22.669Z,49.94
2023-09-17T13:23:54.697Z,50.13
2023-09-17T13:26:27.517Z,50.05
2023-09-17T13:28:59.797Z,50.12
2023-09-17T13:31:33.515Z,50.24
2023-09-17T13:34:07.218Z,50.42
2023-09-17T13:36:39.523Z,50.44
2023-09-17T13:39:15.743Z,50.51
2023-09-17T13:41:49.475Z,50.62
2023-09-17T13:44:23.126Z,50.80
2023-09-17T13:46:56.147Z,50.79
2023-09-17T13:49:28.290Z,50.77
2023-09-17T13:52:00.522Z,50.70
2023-09-17T13:54:32.693Z,50.59
2023-09-17T13:57:04.761Z,50.50
2023-09-17T13:59:36.936Z,50.49
2023-09-17T14:02:10.816Z,50.46
2023-09-17T14:04:42.909Z,50.53
2023-09-17T14:07:15.492Z,50.41
2023-09-17T14:09:47.687Z,50.51
2023-09-17T14:12:19.651Z,50.55
2023-09-17T14:14:51.601Z,50.57
2023-09-17T14:17:23.898Z,50.53
2023-09-17T14:19:56.065Z,50.51
2023-09-17T14:22:28.348Z,50.57
2023-09-17T14:25:00.325Z,50.51
2023-09-17T14:27:32.527Z,50.71
2023-09-17T14:30:06.575Z,50.71
2023-09-17T14:32:38.959Z,50.83
2023-09-17T14:35:12.177Z,50.80
2023-09-17T14:37:44.589Z,50.85
2023-09-17T14:40:17.841Z,50.71
2023-09-17T14:42:52.119Z,50.86
2023-09-17T14:45:24.715Z,50.97
2023-09-17T14:47:57.713Z,50.82
2023-09-17T14:50:29.812Z,50.97
2023-09-17T14:53:02.269Z,50.98
2023-09-17T14:55:34.355Z,50.97
2023-09-17T14:58:06.770Z,50.92
2023-09-17T15:00:38.837Z,50.99
2023-09-17T15:03:11.985Z,50.95
2023-09-17T15:05:44.841Z,50.92
2023-09-17T15:08:17.109Z,50.81
2023-09-17T15:10:49.475Z,50.70
2023-09-17T15:13:22.333Z,50.77
2023-09-17T15:15:54.594Z,50.75
2023-09-17T15:18:27.072Z,50.75
2023-09-17T15:20:59.463Z,50.91
2023-09-17T15:23:32.250Z,51.01
2023-09-17T15:26:05.370Z,50.94
2023-09-17T15:28:37.720Z,50.89
2023-09-17T15:31:10.130Z,51.02
2023-09-17T15:33:42.623Z,51.03
2023-09-17T15:36:14.942Z,51.00
2023-09-17T15:38:47.398Z,51.13
2023-09-17T15:41:20.498Z,51.24
2023-09-17T15:43:52.785Z,51.38
2023-09-17T15:46:25.143Z,51.44
2023-09-17T15:48:57.766Z,51.55
2023-09-17T15:51:29.918Z,51.59
2023-09-17T15:54:02.805Z,51.63
2023-09-17T15:56:38.153Z,51.76
2023-09-17T15:59:10.434Z,51.77
2023-09-17T16:01:44.805Z,51.84
2023-09-17T16:04:50.498Z,51.97
2023-09-17T16:07:58.083Z,52.05
2023-09-17T16:10:56.998Z,52.14
2023-09-17T16:13:38.748Z,52.25
2023-09-17T16:16:22.962Z,52.35
2023-09-17T16:19:29.963Z,52.42
2023-09-17T16:23:00.625Z,52.59
2023-09-17T16:25:37.102Z,52.66
2023-09-17T16:28:30.080Z,52.69
2023-09-17T16:31:02.916Z,52.61
2023-09-17T16:33:36.292Z,52.68
2023-09-17T16:36:08.811Z,52.79
2023-09-17T16:38:42.346Z,52.82
2023-09-17T16:41:15.761Z,53.03
2023-09-17T16:43:51.005Z,53.15
2023-09-17T16:46:23.442Z,53.24
2023-09-17T16:48:56.077Z,53.40
2023-09-17T16:51:28.128Z,53.46
2023-09-17T16:54:00.254Z,53.75
2023-09-17T16:56:32.681Z,53.77
2023-09-17T16:59:04.985Z,53.87
2023-09-17T17:01:38.952Z,54.01
2023-09-17T17:04:11.345Z,53.98
2023-09-17T17:06:43.668Z,54.06
2023-09-17T17:09:15.698Z,54.25
2023-09-17T17:11:48.377Z,54.33
2023-09-17T17:14:20.938Z,54.36
2023-09-17T17:16:53.122Z,54.49
2023-09-17T17:19:25.286Z,54.45
2023-09-17T17:21:57.650Z,54.34
2023-09-17T17:24:29.636Z,54.44
2023-09-17T17:27:01.707Z,54.44
2023-09-17T17:29:34.019Z,54.54
2023-09-17T17:32:06.783Z,54.47
2023-09-17T17:34:39.128Z,54.56
2023-09-17T17:37:11.332Z,54.69
2023-09-17T17:39:46.621Z,54.80
2023-09-17T17:42:21.691Z,54.81
2023-09-17T17:44:54.150Z,54.95
2023-09-17T17:47:28.717Z,54.88
2023-09-17T17:50:03.858Z,55.03
2023-09-17T17:52:36.187Z,55.12
2023-09-17T17:55:09.767Z,55.17
2023-09-17T17:57:41.946Z,55.02
2023-09-17T18:00:15.862Z,55.16
2023-09-17T18:02:50.142Z,55.37
2023-09-17T18:05:24.254Z,55.45
2023-09-17T18:07:57.354Z,55.55
2023-09-17T18:10:32.863Z,55.73
2023-09-17T18:13:05.616Z,55.87
2023-09-17T18:15:39.449Z,56.02
2023-09-17T18:18:11.809Z,56.08
2023-09-17T18:20:44.270Z,56.26
2023-09-17T18:23:19.331Z,56.27
2023-09-17T18:25:52.964Z,56.23
2023-09-17T18:28:25.267Z,56.42
2023-09-17T18:30:59.899Z,56.46
2023-09-17T18:33:34.256Z,56.34
2023-09-17T18:36:07.273Z,56.61
2023-09-17T18:38:39.587Z,56.66
2023-09-17T18:41:11.918Z,56.62
2023-09-17T18:43:44.262Z,56.72
2023-09-17T18:46:19.410Z,56.75
2023-09-17T18:48:51.761Z,56.71
2023-09-17T18:51:24.296Z,56.84
2023-09-17T18:53:57.616Z,56.79
2023-09-17T18:56:30.110Z,56.83
2023-09-17T18:59:02.375Z,56.73
2023-09-17T19:01:34.635Z,56.90
2023-09-17T19:04:14.434Z,57.08
2023-09-17T19:06:47.275Z,57.20
2023-09-17T19:09:20.311Z,57.28
2023-09-17T19:11:52.817Z,57.15
2023-09-17T19:14:27.892Z,57.30
2023-09-17T19:17:04.966Z,57.25
2023-09-17T19:19:37.831Z,57.35
2023-09-17T19:22:11.204Z,57.26
2023-09-17T19:24:43.303Z,57.44
2023-09-17T19:27:16.492Z,57.46
2023-09-17T19:29:49.852Z,57.21
2023-09-17T19:32:22.215Z,57.37
2023-09-17T19:34:54.964Z,57.46
2023-09-17T19:37:29.777Z,57.27
2023-09-17T19:40:03.753Z,57.33
2023-09-17T19:42:36.055Z,57.41
2023-09-17T19:45:09.686Z,57.47
2023-09-17T19:47:43.822Z,57.58
2023-09-17T19:50:16.894Z,57.62
2023-09-17T19:52:49.723Z,57.56
2023-09-17T19:55:22.527Z,57.56
2023-09-17T19:57:59.507Z,57.80
2023-09-17T20:00:32.885Z,57.82
2023-09-17T20:03:06.093Z,58.03
2023-09-17T20:05:38.661Z,57.98
2023-09-17T20:08:11.025Z,58.10
2023-09-17T20:10:43.237Z,58.23
2023-09-17T20:13:16.608Z,58.21
2023-09-17T20:15:51.075Z,58.20
2023-09-17T20:18:23.269Z,58.15
2023-09-17T20:20:55.594Z,57.99
2023-09-17T20:23:30.558Z,57.90
2023-09-17T20:26:02.817Z,58.24
2023-09-17T20:28:35.727Z,58.22
2023-09-17T20:31:08.173Z,58.25
2023-09-17T20:33:43.446Z,58.24
2023-09-17T20:36:15.521Z,58.21
2023-09-17T20:38:50.935Z,58.29
2023-09-17T20:41:24.955Z,58.40
2023-09-17T20:43:58.381Z,58.35
2023-09-17T20:46:34.049Z,58.24
2023-09-17T20:49:16.497Z,58.47
2023-09-17T20:51:50.408Z,58.50
2023-09-17T20:54:23.362Z,58.51
2023-09-17T20:56:57.543Z,58.60
2023-09-17T20:59:29.835Z,58.69
2023-09-17T21:02:02.187Z,58.80
2023-09-17T21:04:37.922Z,58.91
2023-09-17T21:07:12.791Z,58.84
2023-09-17T21:09:45.680Z,59.21
2023-09-17T21:12:18.595Z,59.04
2023-09-17T21:14:50.847Z,58.92
2023-09-17T21:17:23.234Z,58.87
2023-09-17T21:19:55.581Z,58.77
2023-09-17T21:22:27.757Z,58.88
2023-09-17T21:25:00.053Z,59.08
2023-09-17T21:27:32.317Z,59.26
2023-09-17T21:30:08.695Z,59.33
2023-09-17T21:32:46.736Z,59.38
2023-09-17T21:35:20.108Z,59.33
2023-09-17T21:37:52.288Z,59.57
2023-09-17T21:40:27.597Z,59.62
2023-09-17T21:42:59.975Z,59.66
2023-09-17T21:45:32.432Z,59.50
2023-09-17T21:48:05.125Z,59.37
2023-09-17T21:50:38.176Z,59.66
2023-09-17T21:53:13.976Z,59.71
2023-09-17T21:55:46.461Z,59.82
2023-09-17T21:58:19.632Z,60.01
2023-09-17T22:00:52.725Z,60.09
2023-09-17T22:03:28.558Z,59.89
2023-09-17T22:06:03.278Z,60.01
2023-09-17T22:08:36.148Z,60.27
2023-09-17T22:11:11.709Z,60.10
2023-09-17T22:13:44.693Z,59.92
2023-09-17T22:16:16.838Z,60.01
2023-09-17T22:18:50.838Z,59.86
2023-09-17T22:21:23.388Z,59.99
2023-09-17T22:23:55.499Z,60.10
2023-09-17T22:26:28.306Z,60.20
2023-09-17T22:29:01.366Z,60.25
2023-09-17T22:31:33.667Z,60.27
2023-09-17T22:34:06.073Z,60.33
2023-09-17T22:36:39.295Z,60.45
2023-09-17T22:39:11.594Z,60.24
2023-09-17T22:41:43.834Z,60.33
2023-09-17T22:44:23.547Z,60.28
2023-09-17T22:46:57.058Z,60.37
2023-09-17T22:49:30.923Z,60.45
2023-09-17T22:52:03.192Z,60.60
2023-09-17T22:54:37.395Z,60.73
2023-09-17T22:57:10.069Z,60.79
2023-09-17T22:59:42.290Z,60.84
2023-09-17T23:02:14.582Z,60.91
2023-09-17T23:04:46.785Z,61.10
2023-09-17T23:07:18.957Z,61.08
2023-09-17T23:09:53.496Z,61.30
2023-09-17T23:12:25.909Z,61.18
2023-09-17T23:14:58.019Z,61.17
2023-09-17T23:17:30.270Z,61.23
2023-09-17T23:20:07.602Z,61.05
2023-09-17T23:22:42.756Z,60.89
2023-09-17T23:25:15.587Z,60.78
2023-09-17T23:27:49.832Z,60.77
2023-09-17T23:30:22.944Z,60.74
2023-09-17T23:32:55.701Z,60.89
2023-09-17T23:35:27.812Z,60.74
2023-09-17T23:38:03.309Z,60.82
2023-09-17T23:40:35.531Z,60.93
2023-09-17T23:43:09.287Z,60.86
2023-09-17T23:45:42.333Z,61.06
2023-09-17T23:48:19.800Z,60.87
2023-09-17T23:50:54.365Z,60.85
2023-09-17T23:53:26.488Z,61.13
2023-09-17T23:55:59.799Z,61.06
2023-09-17T23:58:32.276Z,61.23
